Time;durP1;ratioP1;P1;durP2;ratioP2;P2;SDS_P1;SDS_P2;PMS_P1;PMS_P2;Temp;Humidity;BMP_temperature;BMP_pressure;BME280_temperature;BME280_humidity;BME280_pressure;Samples;Min_cycle;Max_cycle;Signal;HPM_P1;HPM_P2
2022/03/25 00:04:22;;;;;;;11.47;6.97;;;;;;;5.00;55.02;96877.78;10339626;28;97127;-65
2022/03/25 00:09:26;;;;;;;10.85;6.75;;;;;;;4.86;55.69;96882.06;10331463;28;96971;-65
2022/03/25 00:14:30;;;;;;;15.25;7.57;;;;;;;4.90;55.00;96882.69;10330030;28;98645;-66
2022/03/25 00:19:33;;;;;;;9.52;6.32;;;;;;;4.95;54.79;96880.66;10319764;28;98313;-66
2022/03/25 00:24:36;;;;;;;9.38;6.38;;;;;;;4.90;54.33;96873.16;10330645;28;100448;-65
2022/03/25 00:29:40;;;;;;;12.23;7.75;;;;;;;4.69;55.41;96882.28;10340684;28;97126;-65
2022/03/25 00:34:43;;;;;;;13.52;8.38;;;;;;;4.54;55.54;96878.88;10329920;28;96800;-66
2022/03/25 00:39:46;;;;;;;11.30;7.00;;;;;;;4.58;55.29;96877.78;10337631;28;97302;-66
2022/03/25 00:44:50;;;;;;;12.50;8.70;;;;;;;4.49;55.86;96871.44;10338807;28;97858;-67
2022/03/25 00:49:53;;;;;;;14.40;8.15;;;;;;;4.43;55.79;96871.78;10335999;28;98854;-68
2022/03/25 00:54:56;;;;;;;11.10;7.63;;;;;;;4.49;55.44;96873.16;10338009;28;96886;-67
2022/03/25 01:00:01;;;;;;;12.30;7.53;;;;;;;4.38;56.16;96868.66;10340323;28;96877;-67
2022/03/25 01:05:05;;;;;;;12.02;7.05;;;;;;;4.19;56.61;96863.75;10338544;28;97950;-66
2022/03/25 01:10:08;;;;;;;13.65;8.38;;;;;;;4.20;56.52;96848.16;10346223;28;96969;-65
2022/03/25 01:15:12;;;;;;;12.93;7.78;;;;;;;4.18;55.91;96852.59;10335338;28;98939;-66
2022/03/25 01:20:17;;;;;;;10.10;6.55;;;;;;;4.13;55.08;96846.06;10337150;28;96830;-65
2022/03/25 01:25:20;;;;;;;13.67;7.17;;;;;;;4.07;54.96;96849.81;10339929;28;96856;-65
2022/03/25 01:30:25;;;;;;;11.95;8.02;;;;;;;4.04;56.39;96856.94;10339671;28;96814;-65
2022/03/25 01:35:27;;;;;;;11.57;8.13;;;;;;;3.97;56.26;96851.31;10338277;28;97690;-65
2022/03/25 01:40:31;;;;;;;11.88;8.07;;;;;;;3.67;58.63;96844.44;10339218;28;96942;-66
2022/03/25 01:45:37;;;;;;;13.95;7.80;;;;;;;3.41;59.53;96848.53;10339014;28;96989;-66
2022/03/25 01:50:42;;;;;;;17.50;8.80;;;;;;;3.24;59.82;96844.38;10333100;28;96916;-65
2022/03/25 01:55:51;;;;;;;15.60;9.63;;;;;;;3.22;60.10;96848.75;10321224;28;96890;-65
2022/03/25 02:00:56;;;;;;;12.40;8.27;;;;;;;3.30;59.03;96836.25;10320468;28;96888;-65
2022/03/25 02:05:59;;;;;;;;;;;;;;;3.18;60.42;96835.19;10314071;28;97157;-66
2022/03/25 02:11:02;;;;;;;15.05;9.13;;;;;;;3.19;58.65;96828.31;10333965;28;96779;-65
2022/03/25 02:16:07;;;;;;;12.73;8.52;;;;;;;3.31;58.28;96825.03;10319693;28;97007;-65
2022/03/25 02:21:10;;;;;;;12.68;8.43;;;;;;;3.33;59.28;96824.94;10341781;28;98783;-68
2022/03/25 02:26:15;;;;;;;16.80;9.48;;;;;;;3.28;59.43;96822.59;10317661;28;98295;-67
2022/03/25 02:31:19;;;;;;;12.45;8.02;;;;;;;3.28;58.70;96835.53;10326412;28;97505;-67
2022/03/25 02:36:22;;;;;;;15.50;8.35;;;;;;;3.22;57.76;96831.53;10333925;28;97850;-67
2022/03/25 02:41:26;;;;;;;16.67;8.93;;;;;;;3.07;58.50;96833.25;10327067;28;97287;-67
2022/03/25 02:46:29;;;;;;;15.80;10.43;;;;;;;2.92;59.10;96831.50;10336499;28;96931;-67
2022/03/25 02:51:32;;;;;;;17.90;11.45;;;;;;;2.89;59.73;96839.44;10322258;28;97189;-68
2022/03/25 02:56:36;;;;;;;16.58;9.73;;;;;;;2.86;60.75;96837.03;10314706;28;96856;-68
2022/03/25 03:01:39;;;;;;;14.75;9.68;;;;;;;2.77;60.51;96838.38;10331900;28;96917;-67
2022/03/25 03:06:43;;;;;;;16.45;10.45;;;;;;;2.68;60.84;96834.56;10314482;28;97730;-67
2022/03/25 03:11:47;;;;;;;14.98;9.15;;;;;;;2.76;60.32;96828.97;10326783;28;97585;-67
2022/03/25 03:16:50;;;;;;;15.38;8.93;;;;;;;2.80;59.29;96829.63;10330066;28;100485;-67
2022/03/25 03:21:54;;;;;;;14.35;9.32;;;;;;;2.74;58.98;96827.41;10323828;28;96998;-68
2022/03/25 03:26:58;;;;;;;15.38;10.13;;;;;;;2.75;59.04;96823.88;10327465;28;97241;-67
2022/03/25 03:32:01;;;;;;;13.10;9.05;;;;;;;2.73;58.34;96825.72;10327787;28;96880;-66
2022/03/25 03:37:05;;;;;;;13.00;8.85;;;;;;;2.67;58.01;96832.06;10323293;28;97217;-65
2022/03/25 03:42:09;;;;;;;16.42;9.88;;;;;;;2.50;59.55;96831.22;10324999;28;97491;-69
2022/03/25 03:47:12;;;;;;;15.57;10.27;;;;;;;2.36;60.32;96828.56;10326496;28;99132;-67
2022/03/25 03:52:15;;;;;;;14.95;9.90;;;;;;;2.41;60.01;96826.56;10323067;28;98181;-69
2022/03/25 03:57:20;;;;;;;15.68;9.93;;;;;;;2.29;60.59;96830.63;10322835;28;97189;-68
2022/03/25 04:02:23;;;;;;;17.55;10.50;;;;;;;2.28;60.39;96828.13;10317476;28;98789;-67
2022/03/25 04:07:26;;;;;;;20.45;13.13;;;;;;;2.17;61.09;96839.03;10319667;28;96822;-67
2022/03/25 04:12:30;;;;;;;19.58;10.60;;;;;;;2.18;61.06;96830.41;10323849;28;96957;-66
2022/03/25 04:17:33;;;;;;;15.80;9.50;;;;;;;2.14;61.49;96839.19;10322742;28;96905;-66
2022/03/25 04:22:36;;;;;;;15.55;9.05;;;;;;;2.14;60.59;96839.19;10337890;28;98024;-65
2022/03/25 04:27:55;;;;;;;17.58;11.55;;;;;;;2.06;60.89;96846.47;10324427;28;96889;-65
2022/03/25 04:33:05;;;;;;;16.23;10.30;;;;;;;2.10;60.62;96845.41;10337345;28;96784;-66
2022/03/25 04:38:09;;;;;;;16.38;10.63;;;;;;;2.00;61.02;96846.81;10319496;28;97750;-66
2022/03/25 04:43:13;;;;;;;18.67;11.88;;;;;;;1.84;60.96;96847.59;10319294;28;97181;-65
2022/03/25 04:48:16;;;;;;;15.68;10.45;;;;;;;1.83;60.64;96845.94;10333346;28;97127;-66
2022/03/25 04:53:19;;;;;;;17.15;9.90;;;;;;;1.83;59.88;96845.94;10318567;28;96932;-65
2022/03/25 04:58:23;;;;;;;15.23;9.70;;;;;;;1.71;58.55;96841.41;10325637;28;96923;-65
2022/03/25 05:03:26;;;;;;;17.63;9.57;;;;;;;1.56;60.70;96843.84;10333775;28;96998;-65
2022/03/25 05:08:29;;;;;;;24.20;11.73;;;;;;;1.46;61.50;96850.38;10326456;28;98314;-66
2022/03/25 05:13:33;;;;;;;16.02;9.32;;;;;;;1.55;61.44;96849.91;10335346;28;96955;-66
2022/03/25 05:18:38;;;;;;;18.40;9.63;;;;;;;1.56;60.18;96858.50;10333474;28;97079;-65
2022/03/25 05:23:41;;;;;;;15.85;9.85;;;;;;;1.55;61.17;96861.97;10336750;28;97610;-66
2022/03/25 05:28:46;;;;;;;14.40;8.88;;;;;;;1.54;59.59;96871.44;10323321;28;97508;-65
2022/03/25 05:33:48;;;;;;;15.25;9.32;;;;;;;1.50;59.77;96874.22;10340452;28;96899;-65
2022/03/25 05:38:51;;;;;;;16.35;10.45;;;;;;;1.40;60.00;96873.88;10327875;28;97802;-66
2022/03/25 05:43:56;;;;;;;14.38;8.95;;;;;;;1.37;59.65;96876.59;10339717;28;96814;-65
2022/03/25 05:48:59;;;;;;;15.98;8.88;;;;;;;1.37;59.63;96872.25;10336693;28;96777;-65
2022/03/25 05:54:02;;;;;;;15.98;8.85;;;;;;;1.42;59.22;96877.19;10332709;28;96940;-66
2022/03/25 05:59:07;;;;;;;15.52;10.35;;;;;;;1.44;59.28;96879.69;10336927;28;96867;-65
2022/03/25 06:04:10;;;;;;;19.40;10.13;;;;;;;1.42;59.96;96878.91;10313040;28;96949;-65
2022/03/25 06:09:13;;;;;;;18.13;10.25;;;;;;;1.55;59.83;96883.38;10337305;28;97752;-65
2022/03/25 06:14:18;;;;;;;17.20;10.48;;;;;;;1.61;60.84;96878.84;10323570;28;99976;-66
2022/03/25 06:19:21;;;;;;;15.85;10.07;;;;;;;1.73;60.15;96888.56;10322406;28;98008;-66
2022/03/25 06:24:24;;;;;;;18.88;9.73;;;;;;;1.89;60.43;96891.19;10330452;28;100326;-65
2022/03/25 06:29:30;;;;;;;16.05;9.90;;;;;;;1.99;60.22;96892.38;10328928;28;98525;-65
2022/03/25 06:34:33;;;;;;;15.57;9.10;;;;;;;2.13;59.88;96891.66;10335464;28;97697;-66
2022/03/25 06:39:35;;;;;;;15.10;9.15;;;;;;;2.24;58.67;96888.53;10342710;28;97743;-65
2022/03/25 06:44:40;;;;;;;14.35;8.40;;;;;;;2.35;58.33;96885.38;10336251;28;96797;-66
2022/03/25 06:49:43;;;;;;;13.18;8.15;;;;;;;2.59;57.89;96885.81;10324979;28;97024;-65
2022/03/25 06:54:47;;;;;;;14.93;9.13;;;;;;;2.61;57.53;96884.78;10337010;28;96919;-66
2022/03/25 06:59:52;;;;;;;14.38;8.35;;;;;;;2.64;57.16;96889.81;10323783;28;98046;-65
2022/03/25 07:04:55;;;;;;;16.10;9.68;;;;;;;2.75;57.70;96893.53;10326885;28;97056;-66
2022/03/25 07:09:58;;;;;;;15.05;9.18;;;;;;;2.80;57.08;96888.97;10323985;28;97635;-65
2022/03/25 07:15:04;;;;;;;13.73;8.90;;;;;;;2.88;56.98;96894.56;10321868;28;98601;-66
2022/03/25 07:20:09;;;;;;;15.10;9.55;;;;;;;2.99;56.99;96894.78;10322026;28;100036;-65
2022/03/25 07:25:14;;;;;;;15.77;8.52;;;;;;;3.14;56.63;96902.59;10315504;28;98764;-65
2022/03/25 07:30:19;;;;;;;13.50;9.18;;;;;;;3.25;56.36;96906.22;10311593;28;97525;-66
2022/03/25 07:35:23;;;;;;;18.35;10.52;;;;;;;3.40;56.52;96909.72;10328491;28;97330;-66
2022/03/25 07:40:26;;;;;;;17.65;11.18;;;;;;;3.64;56.76;96907.47;10317544;28;96853;-65
2022/03/25 07:45:30;;;;;;;17.02;10.57;;;;;;;3.99;55.73;96903.75;10325181;28;97349;-65
2022/03/25 07:50:33;;;;;;;20.53;11.20;;;;;;;4.24;56.21;96905.69;10315556;28;97371;-65
2022/03/25 07:55:36;;;;;;;14.95;9.02;;;;;;;4.64;55.17;96902.44;10303045;28;97080;-66
2022/03/25 08:00:42;;;;;;;19.17;10.00;;;;;;;4.76;55.57;96906.88;10317163;28;96759;-65
2022/03/25 08:05:47;;;;;;;16.98;10.27;;;;;;;5.06;56.07;96898.94;10330657;28;96856;-65
2022/03/25 08:10:55;;;;;;;15.32;9.82;;;;;;;5.31;55.96;96902.56;10304179;28;96961;-65
2022/03/25 08:15:59;;;;;;;18.23;10.38;;;;;;;5.62;56.30;96900.56;10339199;28;97102;-65
2022/03/25 08:21:03;;;;;;;16.10;10.20;;;;;;;5.89;55.71;96903.88;10333562;28;96872;-65
2022/03/25 08:31:34;;;;;;;16.52;9.68;;;;;;;5.94;55.86;96901.00;10308446;28;98173;-66
2022/03/25 08:36:38;;;;;;;20.15;10.88;;;;;;;6.17;55.19;96906.41;10325590;28;96765;-65
2022/03/25 08:41:41;;;;;;;16.90;10.88;;;;;;;6.33;54.98;96908.78;10337656;28;96829;-65
2022/03/25 08:46:45;;;;;;;18.88;11.60;;;;;;;6.55;55.38;96916.75;10312710;28;96699;-65
2022/03/25 08:51:48;;;;;;;17.87;11.37;;;;;;;6.96;54.56;96910.47;10330687;28;98361;-65
2022/03/25 08:56:57;;;;;;;22.55;12.88;;;;;;;7.11;54.02;96907.69;10329368;28;96765;-65
2022/03/25 09:02:02;;;;;;;18.20;10.80;;;;;;;7.20;54.53;96897.50;10326650;28;96776;-65
2022/03/25 09:07:05;;;;;;;19.33;11.07;;;;;;;7.41;54.15;96899.47;10321712;28;96770;-65
2022/03/25 09:12:09;;;;;;;19.13;12.05;;;;;;;7.54;54.20;96897.63;10333255;28;97108;-65
2022/03/25 09:17:13;;;;;;;23.45;12.82;;;;;;;7.85;53.44;96892.75;10323326;28;99660;-65
2022/03/25 09:22:21;;;;;;;20.85;12.50;;;;;;;7.95;52.57;96885.91;10323522;28;97043;-66
2022/03/25 09:27:24;;;;;;;20.45;12.55;;;;;;;8.00;52.80;96895.16;10337398;28;96698;-65
2022/03/25 09:32:29;;;;;;;22.50;13.07;;;;;;;8.22;52.45;96891.75;10337467;28;96833;-65
2022/03/25 09:37:32;;;;;;;23.85;13.50;;;;;;;8.48;51.84;96884.53;10314401;28;98158;-65
2022/03/25 09:42:36;;;;;;;24.45;14.30;;;;;;;8.54;52.09;96878.88;10337073;28;97763;-65
2022/03/25 09:47:41;;;;;;;25.30;12.70;;;;;;;8.82;51.36;96874.91;10314265;28;97310;-65
2022/03/25 09:52:45;;;;;;;23.10;13.70;;;;;;;8.98;50.97;96871.91;10319386;28;96819;-65
2022/03/25 09:58:08;;;;;;;23.23;14.10;;;;;;;9.15;50.91;96864.56;10336561;28;96812;-66
2022/03/25 10:03:12;;;;;;;25.77;14.82;;;;;;;9.26;50.95;96860.13;10337275;28;97508;-65
2022/03/25 10:08:29;;;;;;;23.60;14.30;;;;;;;9.39;50.51;96854.72;10318875;28;96749;-66
2022/03/25 10:13:32;;;;;;;23.88;15.43;;;;;;;9.60;49.83;96860.00;10330348;28;97686;-67
2022/03/25 10:18:40;;;;;;;24.05;15.73;;;;;;;9.85;49.57;96864.03;10316887;28;96907;-65
2022/03/25 10:23:45;;;;;;;21.17;14.07;;;;;;;10.10;49.07;96851.53;10326666;28;98520;-65
2022/03/25 10:28:51;;;;;;;22.80;14.48;;;;;;;10.35;49.40;96844.22;10304404;28;97110;-65
2022/03/25 10:33:57;;;;;;;;;;;;;;;10.59;48.70;96849.94;10317268;28;97184;-65
2022/03/25 10:39:04;;;;;;;24.08;14.85;;;;;;;10.71;48.83;96842.00;10331503;28;98388;-66
2022/03/25 10:44:09;;;;;;;30.38;18.58;;;;;;;10.82;48.35;96844.47;10306283;28;96897;-66
2022/03/25 10:49:15;;;;;;;26.10;17.65;;;;;;;10.96;48.05;96831.06;10308829;28;97033;-66
2022/03/25 10:54:24;;;;;;;25.10;16.00;;;;;;;11.13;47.84;96831.31;10329663;28;98291;-66
2022/03/25 10:59:29;;;;;;;20.58;13.10;;;;;;;11.27;47.42;96823.06;10334494;28;97342;-65
2022/03/25 11:04:35;;;;;;;23.48;13.77;;;;;;;11.44;47.13;96823.38;10316411;28;99894;-65
2022/03/25 11:09:38;;;;;;;24.33;15.43;;;;;;;11.68;46.48;96826.38;10310678;28;96943;-65
2022/03/25 11:14:41;;;;;;;23.23;15.15;;;;;;;11.81;45.77;96825.25;10310562;28;96920;-65
2022/03/25 11:19:47;;;;;;;24.13;15.27;;;;;;;12.03;45.41;96814.44;10317514;28;96897;-65
2022/03/25 11:24:54;;;;;;;24.58;15.32;;;;;;;12.25;45.15;96818.53;10307590;28;97234;-66
2022/03/25 11:30:09;;;;;;;25.95;16.33;;;;;;;12.34;44.58;96811.59;10311450;28;97576;-66
2022/03/25 11:35:20;;;;;;;;;;;;;;;12.49;44.87;96809.28;10322502;28;99782;-65
2022/03/25 11:40:28;;;;;;;22.27;14.65;;;;;;;12.65;44.46;96803.44;10320922;28;96764;-66
2022/03/25 11:45:36;;;;;;;24.02;15.57;;;;;;;12.78;44.00;96788.16;10324400;28;96938;-65
2022/03/25 11:50:43;;;;;;;23.98;15.43;;;;;;;12.94;43.60;96782.28;10327372;28;97103;-65
2022/03/25 11:55:53;;;;;;;30.85;17.08;;;;;;;13.10;43.61;96778.16;10325280;28;96926;-66
2022/03/25 12:01:02;;;;;;;26.45;16.27;;;;;;;13.24;43.07;96773.22;10333594;28;96856;-66
2022/03/25 12:06:07;;;;;;;26.17;16.85;;;;;;;13.47;42.68;96769.31;10336369;28;96978;-66
2022/03/25 12:11:11;;;;;;;28.13;17.30;;;;;;;13.60;43.08;96767.94;10339126;28;97699;-65
2022/03/25 12:16:52;;;;;;;29.97;18.50;;;;;;;13.69;42.43;96755.69;10338248;28;97929;-65
2022/03/25 12:21:58;;;;;;;30.30;18.50;;;;;;;13.88;42.66;96744.16;10329751;28;98657;-66
2022/03/25 12:27:04;;;;;;;27.05;18.25;;;;;;;14.06;41.04;96757.19;10332932;28;96794;-66
2022/03/25 12:32:09;;;;;;;26.60;18.27;;;;;;;14.18;41.80;96747.25;10316724;28;97320;-66
2022/03/25 12:37:23;;;;;;;26.33;18.13;;;;;;;14.31;42.03;96731.03;10319003;28;96965;-66
2022/03/25 12:42:28;;;;;;;24.40;17.50;;;;;;;14.51;41.26;96718.47;10332879;28;97474;-66
2022/03/25 12:47:32;;;;;;;28.25;17.70;;;;;;;14.70;41.12;96710.28;10315650;28;97170;-66
2022/03/25 12:52:37;;;;;;;26.65;18.95;;;;;;;14.90;40.02;96704.72;10323733;28;96851;-66
2022/03/25 12:57:41;;;;;;;27.15;18.63;;;;;;;15.11;39.91;96696.34;10314118;28;99902;-66
2022/03/25 13:02:46;;;;;;;27.97;19.20;;;;;;;15.11;39.78;96685.81;10315818;28;98216;-66
2022/03/25 13:07:54;;;;;;;25.40;18.55;;;;;;;15.22;38.38;96682.03;10330096;28;97035;-66
2022/03/25 13:12:59;;;;;;;23.40;16.50;;;;;;;15.39;38.27;96670.50;10334060;28;97398;-66
2022/03/25 13:18:05;;;;;;;29.00;18.92;;;;;;;15.65;38.35;96661.56;10326898;28;97131;-66
2022/03/25 13:23:11;;;;;;;24.20;16.88;;;;;;;15.87;37.30;96662.66;10328126;28;97990;-66
2022/03/25 13:28:16;;;;;;;28.25;17.55;;;;;;;16.09;36.72;96655.81;10305531;28;96984;-66
2022/03/25 13:33:22;;;;;;;;;;;;;;;16.38;37.16;96649.06;10320058;28;96786;-66
2022/03/25 13:38:28;;;;;;;23.23;15.07;;;;;;;16.60;36.04;96642.16;10350652;28;97157;-66
2022/03/25 13:43:36;;;;;;;21.35;15.80;;;;;;;17.16;34.97;96636.63;10307267;28;97853;-66
2022/03/25 13:48:41;;;;;;;21.30;14.50;;;;;;;17.69;34.14;96631.31;10319486;28;96793;-66
2022/03/25 13:53:46;;;;;;;20.50;14.73;;;;;;;18.10;32.08;96612.34;10337126;28;96899;-66
2022/03/25 13:58:52;;;;;;;20.42;14.60;;;;;;;18.53;32.92;96612.38;10337039;28;96889;-66
2022/03/25 14:04:05;;;;;;;18.67;14.38;;;;;;;19.02;31.56;96610.81;10333087;28;96939;-66
2022/03/25 14:09:29;;;;;;;19.33;14.15;;;;;;;19.43;30.92;96602.13;10328996;28;99965;-66
2022/03/25 14:14:34;;;;;;;18.50;14.52;;;;;;;19.79;30.61;96598.44;10309823;28;96941;-66
2022/03/25 14:19:37;;;;;;;20.13;14.75;;;;;;;20.13;30.15;96596.75;10317156;28;97173;-66
2022/03/25 14:24:42;;;;;;;15.88;12.88;;;;;;;20.51;30.12;96588.28;10319438;28;97191;-66
2022/03/25 14:29:45;;;;;;;17.05;13.65;;;;;;;20.91;29.26;96585.69;10312070;28;96772;-66
2022/03/25 14:34:50;;;;;;;17.93;13.97;;;;;;;21.19;29.17;96574.88;10318096;28;97559;-67
2022/03/25 14:39:54;;;;;;;;;;;;;;;21.60;29.69;96581.72;10334157;28;99831;-66
2022/03/25 14:44:57;;;;;;;16.38;13.27;;;;;;;21.92;28.39;96567.72;10327641;28;96851;-66
2022/03/25 14:50:00;;;;;;;18.15;13.70;;;;;;;22.11;27.70;96561.50;10304383;28;97333;-66
2022/03/25 14:55:06;;;;;;;17.13;12.93;;;;;;;22.28;26.48;96558.34;10322794;28;96830;-66
2022/03/25 15:00:10;;;;;;;16.58;12.82;;;;;;;22.38;26.34;96558.69;10305737;28;96890;-66
2022/03/25 15:05:13;;;;;;;15.77;12.98;;;;;;;22.39;26.32;96557.66;10302593;28;97322;-66
2022/03/25 15:10:18;;;;;;;16.03;12.90;;;;;;;22.60;25.92;96551.19;10313629;28;97072;-66
2022/03/25 15:15:25;;;;;;;17.58;14.32;;;;;;;22.69;25.49;96557.06;10310411;28;96845;-66
2022/03/25 15:20:28;;;;;;;16.08;13.95;;;;;;;22.79;25.56;96557.41;10318682;28;98260;-66
2022/03/25 15:25:32;;;;;;;14.02;11.80;;;;;;;22.80;24.70;96548.38;10333882;28;101950;-66
2022/03/25 15:35:55;;;;;;;13.75;10.90;;;;;;;22.09;24.13;96546.78;10323336;28;97141;-66
2022/03/25 15:41:20;;;;;;;14.25;10.73;;;;;;;22.08;24.67;96550.47;10306126;28;96794;-66
2022/03/25 15:46:23;;;;;;;12.10;10.45;;;;;;;22.04;23.61;96545.56;10304567;28;96939;-66
2022/03/25 15:51:26;;;;;;;12.47;10.33;;;;;;;21.51;23.47;96549.22;10330220;28;96976;-66
2022/03/25 15:56:30;;;;;;;12.80;9.82;;;;;;;20.72;24.19;96543.00;10333179;28;96970;-66
2022/03/25 16:01:33;;;;;;;11.30;9.73;;;;;;;20.21;24.48;96546.19;10326676;28;97163;-66
2022/03/25 16:06:38;;;;;;;14.13;10.63;;;;;;;19.77;25.17;96544.81;10317744;28;97380;-67
2022/03/25 16:11:44;;;;;;;12.18;9.70;;;;;;;19.49;25.55;96545.72;10329844;28;97010;-66
2022/03/25 16:16:47;;;;;;;12.25;10.07;;;;;;;19.39;25.22;96548.72;10324861;28;97500;-66
2022/03/25 16:21:51;;;;;;;13.40;10.45;;;;;;;19.14;25.83;96540.44;10322139;28;97966;-66
2022/03/25 16:26:56;;;;;;;11.70;9.27;;;;;;;18.94;25.79;96539.47;10324677;28;98230;-66
2022/03/25 16:31:59;;;;;;;12.40;9.77;;;;;;;18.73;26.21;96541.13;10317180;28;96803;-66
2022/03/25 16:37:02;;;;;;;14.30;9.57;;;;;;;18.44;26.25;96542.09;10337622;28;98463;-66
2022/03/25 16:42:08;;;;;;;12.25;8.07;;;;;;;18.21;27.52;96537.81;10343070;28;98324;-66
2022/03/25 16:47:11;;;;;;;18.13;13.73;;;;;;;18.01;27.60;96544.72;10333996;28;96991;-66
2022/03/25 16:52:16;;;;;;;18.95;13.60;;;;;;;17.78;28.27;96539.56;10335405;28;97228;-66
2022/03/25 16:57:21;;;;;;;10.40;6.90;;;;;;;17.53;28.55;96537.22;10333349;28;96774;-66
2022/03/25 17:02:24;;;;;;;8.48;7.00;;;;;;;17.06;29.44;96541.03;10311954;28;96918;-66
2022/03/25 17:07:27;;;;;;;11.57;6.22;;;;;;;16.62;29.86;96546.06;10346223;28;96986;-66
2022/03/25 17:12:32;;;;;;;12.18;6.82;;;;;;;16.19;30.30;96545.72;10335012;28;97036;-66
2022/03/25 17:17:35;;;;;;;12.27;7.93;;;;;;;15.99;30.25;96544.53;10357447;28;97124;-66
2022/03/25 17:22:38;;;;;;;13.68;8.02;;;;;;;15.70;30.37;96540.72;10342798;28;96877;-66
2022/03/25 17:27:42;;;;;;;11.88;8.35;;;;;;;15.43;30.76;96548.06;10333313;28;99588;-66
2022/03/25 17:32:45;;;;;;;14.02;9.13;;;;;;;15.23;30.16;96544.19;10344831;28;97001;-66
2022/03/25 17:37:48;;;;;;;11.65;8.07;;;;;;;15.09;30.67;96549.16;10346934;28;98500;-66
2022/03/25 17:42:52;;;;;;;13.00;8.88;;;;;;;14.93;30.32;96554.47;10321834;28;96876;-66
2022/03/25 17:47:56;;;;;;;12.75;8.40;;;;;;;14.79;30.68;96553.31;10348759;28;97117;-66
2022/03/25 17:52:59;;;;;;;12.25;8.15;;;;;;;14.68;30.49;96549.22;10326893;28;98248;-66
2022/03/25 17:58:04;;;;;;;10.93;7.75;;;;;;;14.55;29.85;96554.97;10327164;28;96938;-66
2022/03/25 18:03:08;;;;;;;11.73;8.25;;;;;;;14.43;29.49;96553.66;10324295;28;97672;-66
2022/03/25 18:08:12;;;;;;;15.73;8.00;;;;;;;14.30;29.04;96556.75;10324241;28;98561;-66
2022/03/25 18:13:16;;;;;;;10.90;7.90;;;;;;;14.18;29.79;96555.44;10321435;28;98105;-66
2022/03/25 18:18:22;;;;;;;11.18;8.55;;;;;;;14.11;28.45;96557.06;10320016;28;99713;-66
2022/03/25 18:23:27;;;;;;;10.02;7.80;;;;;;;14.05;29.42;96558.53;10320086;28;97830;-66
2022/03/25 18:28:32;;;;;;;10.20;7.45;;;;;;;14.00;29.26;96563.44;10332617;28;96922;-66
2022/03/25 18:33:35;;;;;;;;;;;;;;;13.90;29.61;96563.59;10330066;28;98428;-66
2022/03/25 18:38:38;;;;;;;15.00;9.25;;;;;;;13.90;29.17;96573.28;10333312;28;97723;-65
2022/03/25 18:43:47;;;;;;;11.50;8.93;;;;;;;13.88;29.27;96570.81;10322803;28;98666;-66
2022/03/25 18:48:51;;;;;;;10.98;8.15;;;;;;;13.86;29.54;96571.94;10323601;28;97740;-66
2022/03/25 18:53:54;;;;;;;13.10;10.10;;;;;;;13.78;29.29;96570.13;10327062;28;97151;-66
2022/03/25 18:58:59;;;;;;;13.20;9.27;;;;;;;13.77;30.43;96568.47;10322637;28;99619;-66
2022/03/25 19:04:02;;;;;;;13.25;9.23;;;;;;;13.74;30.33;96563.53;10327355;28;97744;-66
2022/03/25 19:09:05;;;;;;;14.43;9.52;;;;;;;13.74;30.06;96569.63;10322851;28;101037;-65
2022/03/25 19:14:09;;;;;;;13.50;9.40;;;;;;;13.70;29.79;96567.47;10322298;28;97065;-66
2022/03/25 19:19:13;;;;;;;12.45;9.57;;;;;;;13.65;30.20;96567.13;10325393;28;96903;-66
2022/03/25 19:24:16;;;;;;;15.75;9.68;;;;;;;13.58;30.35;96567.75;10331995;28;97044;-65
2022/03/25 19:29:20;;;;;;;13.32;9.43;;;;;;;13.55;30.66;96568.09;10324858;28;98578;-65
2022/03/25 19:34:23;;;;;;;14.32;10.85;;;;;;;13.49;31.25;96576.56;10328676;28;97104;-65
2022/03/25 19:39:26;;;;;;;16.02;12.35;;;;;;;13.46;31.03;96578.69;10327708;28;98512;-65
2022/03/25 19:44:33;;;;;;;16.20;11.98;;;;;;;13.39;31.41;96575.88;10328229;28;98543;-65
2022/03/25 19:49:39;;;;;;;16.30;10.90;;;;;;;13.38;31.72;96590.81;10327854;28;98379;-66
2022/03/25 19:54:42;;;;;;;15.18;10.77;;;;;;;13.36;31.89;96581.41;10327157;28;100465;-66
2022/03/25 19:59:46;;;;;;;14.77;11.20;;;;;;;13.34;31.95;96588.63;10328372;28;97144;-66
2022/03/25 20:04:50;;;;;;;40.95;28.15;;;;;;;13.30;32.61;96584.69;10328428;28;98229;-65
2022/03/25 20:09:54;;;;;;;18.35;12.55;;;;;;;13.22;32.30;96581.03;10338793;28;97199;-65
2022/03/25 20:14:58;;;;;;;22.73;14.95;;;;;;;13.15;32.80;96581.81;10326000;28;97032;-66
2022/03/25 20:20:02;;;;;;;20.17;13.80;;;;;;;13.10;33.27;96590.16;10335022;28;96897;-66
2022/03/25 20:25:08;;;;;;;16.25;11.30;;;;;;;13.08;33.09;96589.47;10336417;28;97268;-65
2022/03/25 20:30:13;;;;;;;16.98;11.68;;;;;;;13.05;32.79;96595.03;10330299;28;97114;-66
2022/03/25 20:35:16;;;;;;;17.77;11.65;;;;;;;13.03;32.95;96589.09;10332753;28;98127;-66
2022/03/25 20:40:19;;;;;;;14.95;11.35;;;;;;;13.07;33.01;96594.91;10337512;28;98280;-66
2022/03/25 20:45:23;;;;;;;15.20;10.68;;;;;;;13.04;33.58;96602.06;10324296;28;99741;-64
2022/03/25 20:50:26;;;;;;;19.70;12.13;;;;;;;12.90;33.53;96607.84;10318838;28;96822;-66
2022/03/25 20:55:29;;;;;;;16.10;11.70;;;;;;;12.69;33.25;96601.13;10333567;28;97908;-65
2022/03/25 21:00:34;;;;;;;18.70;12.85;;;;;;;12.47;33.35;96617.34;10319566;28;98511;-66
2022/03/25 21:05:37;;;;;;;21.42;12.35;;;;;;;12.27;33.87;96612.25;10325000;28;97429;-65
2022/03/25 21:10:40;;;;;;;18.30;12.40;;;;;;;12.12;34.23;96614.53;10336879;28;96880;-65
2022/03/25 21:15:45;;;;;;;15.88;11.68;;;;;;;11.95;34.42;96612.72;10329951;28;96793;-65
2022/03/25 21:20:48;;;;;;;16.65;11.90;;;;;;;11.72;34.71;96613.13;10331456;28;98001;-65
2022/03/25 21:25:51;;;;;;;18.38;11.52;;;;;;;11.47;35.05;96621.66;10325944;28;98427;-65
2022/03/25 21:30:56;;;;;;;31.23;23.30;;;;;;;11.26;36.08;96622.66;10316466;28;97595;-64
2022/03/25 21:35:59;;;;;;;21.90;13.90;;;;;;;11.10;35.59;96622.41;10326243;28;98617;-65
2022/03/25 21:41:03;;;;;;;38.15;23.75;;;;;;;10.98;35.93;96625.22;10333030;28;98803;-65
2022/03/25 21:46:08;;;;;;;35.45;21.35;;;;;;;10.75;35.67;96619.44;10321464;28;96997;-65
2022/03/25 21:51:11;;;;;;;38.33;22.83;;;;;;;10.52;36.84;96618.94;10331362;28;97785;-65
2022/03/25 21:56:14;;;;;;;38.42;23.15;;;;;;;10.37;36.85;96626.38;10324820;28;98223;-66
2022/03/25 22:01:19;;;;;;;27.27;18.05;;;;;;;10.31;36.62;96620.84;10326580;28;98532;-66
2022/03/25 22:06:22;;;;;;;25.10;16.85;;;;;;;10.19;36.96;96628.00;10336847;28;97086;-66
2022/03/25 22:11:25;;;;;;;24.58;17.10;;;;;;;10.00;37.55;96631.38;10331420;28;97073;-67
2022/03/25 22:16:29;;;;;;;22.77;14.68;;;;;;;9.75;38.36;96636.16;10327681;28;96908;-66
2022/03/25 22:21:33;;;;;;;;;;;;;;;9.63;38.86;96637.19;10327641;28;98575;-67
2022/03/25 22:26:36;;;;;;;24.65;16.08;;;;;;;9.47;39.25;96638.50;10327995;28;97670;-67
2022/03/25 22:31:40;;;;;;;25.35;17.10;;;;;;;9.25;40.97;96643.88;10336414;28;96960;-67
2022/03/25 22:36:46;;;;;;;34.42;21.65;;;;;;;8.92;40.80;96636.13;10322362;28;97453;-67
2022/03/25 22:41:49;;;;;;;34.28;22.08;;;;;;;8.92;41.06;96650.94;10329223;28;97318;-66
2022/03/25 22:46:53;;;;;;;26.77;18.02;;;;;;;8.75;41.41;96656.72;10322173;28;97028;-66
2022/03/25 22:51:57;;;;;;;20.17;13.05;;;;;;;8.62;41.49;96652.53;10327509;28;96930;-67
2022/03/25 22:57:01;;;;;;;22.15;14.38;;;;;;;8.60;41.68;96653.59;10325500;28;96890;-66
2022/03/25 23:02:06;;;;;;;20.92;14.38;;;;;;;8.46;41.67;96663.34;10329619;28;96981;-67
2022/03/25 23:07:09;;;;;;;16.88;11.95;;;;;;;8.44;42.00;96669.63;10322579;28;97527;-67
2022/03/25 23:12:12;;;;;;;17.95;12.20;;;;;;;8.04;42.92;96668.44;10331903;28;96898;-67
2022/03/25 23:17:16;;;;;;;18.20;12.50;;;;;;;7.89;43.55;96670.47;10329978;28;97522;-66
2022/03/25 23:22:20;;;;;;;19.27;11.85;;;;;;;7.93;43.15;96671.06;10316761;28;96796;-67
2022/03/25 23:27:23;;;;;;;21.35;13.38;;;;;;;7.89;43.44;96680.88;10316499;28;98500;-67
2022/03/25 23:32:27;;;;;;;19.27;11.82;;;;;;;7.66;44.55;96684.44;10323683;28;96769;-67
2022/03/25 23:37:30;;;;;;;16.25;11.27;;;;;;;7.62;43.93;96685.63;10332500;28;96851;-66